createdAt,value
2023-02-14T00:02:05.861Z,7.33
2023-02-14T00:07:20.355Z,7.29
2023-02-14T00:09:54.470Z,7.27
2023-02-14T00:13:00.157Z,7.27
2023-02-14T00:15:27.024Z,7.24
2023-02-14T00:18:07.815Z,7.22
2023-02-14T00:20:38.738Z,7.20
2023-02-14T00:23:24.052Z,7.19
2023-02-14T00:25:50.821Z,7.15
2023-02-14T00:28:18.788Z,7.12
2023-02-14T00:30:47.669Z,7.10
2023-02-14T00:33:14.491Z,7.11
2023-02-14T00:35:41.257Z,7.08
2023-02-14T00:38:08.005Z,7.06
2023-02-14T00:40:34.747Z,7.06
2023-02-14T00:43:02.937Z,7.04
2023-02-14T00:45:48.073Z,7.02
2023-02-14T00:48:15.046Z,7.00
2023-02-14T00:50:45.639Z,7.01
2023-02-14T00:53:13.236Z,6.99
2023-02-14T00:55:40.169Z,6.99
2023-02-14T00:58:06.937Z,6.97
2023-02-14T01:00:45.650Z,6.95
2023-02-14T01:03:13.856Z,6.93
2023-02-14T01:05:44.272Z,6.92
2023-02-14T01:08:14.270Z,6.89
2023-02-14T01:10:41.848Z,6.88
2023-02-14T01:13:16.561Z,6.89
2023-02-14T01:15:47.959Z,6.88
2023-02-14T01:18:15.988Z,6.87
2023-02-14T01:20:42.944Z,6.86
2023-02-14T01:23:10.537Z,6.86
2023-02-14T01:25:39.234Z,6.86
2023-02-14T01:28:15.097Z,6.84
2023-02-14T01:30:43.421Z,6.84
2023-02-14T01:33:10.410Z,6.80
2023-02-14T01:35:40.516Z,6.81
2023-02-14T01:38:08.014Z,6.77
2023-02-14T01:40:43.791Z,6.75
2023-02-14T01:43:20.833Z,6.72
2023-02-14T01:45:47.762Z,6.67
2023-02-14T01:48:15.654Z,6.64
2023-02-14T01:50:45.340Z,6.61
2023-02-14T01:53:28.900Z,6.58
2023-02-14T01:56:05.970Z,6.54
2023-02-14T01:58:36.449Z,6.50
2023-02-14T02:01:06.453Z,6.47
2023-02-14T02:03:45.924Z,6.47
2023-02-14T02:06:30.031Z,6.44
2023-02-14T02:09:55.337Z,6.37
2023-02-14T02:12:36.717Z,6.34
2023-02-14T02:16:05.527Z,6.32
2023-02-14T02:19:01.803Z,6.26
2023-02-14T02:22:36.012Z,6.21
2023-02-14T02:26:05.163Z,6.15
2023-02-14T02:29:52.298Z,6.12
2023-02-14T02:33:28.580Z,6.05
2023-02-14T02:40:30.953Z,6.02
2023-02-14T02:43:39.001Z,6.02
2023-02-14T02:47:03.172Z,6.00
2023-02-14T02:50:39.969Z,5.99
2023-02-14T02:53:35.669Z,5.99
2023-02-14T02:56:52.791Z,5.98
2023-02-14T03:00:06.895Z,5.99
2023-02-14T03:03:24.652Z,5.98
2023-02-14T03:06:20.857Z,5.99
2023-02-14T03:09:38.345Z,5.96
2023-02-14T03:12:44.173Z,5.97
2023-02-14T03:24:55.506Z,5.84
2023-02-14T03:28:13.110Z,5.81
2023-02-14T03:31:03.834Z,5.83
2023-02-14T03:37:20.551Z,5.82
2023-02-14T03:40:10.720Z,5.82
2023-02-14T03:42:52.504Z,5.82
2023-02-14T03:45:33.707Z,5.81
2023-02-14T03:48:06.872Z,5.82
2023-02-14T03:50:36.626Z,5.81
2023-02-14T03:53:05.489Z,5.80
2023-02-14T03:56:05.038Z,5.81
2023-02-14T03:59:06.010Z,5.79
2023-02-14T04:02:16.783Z,5.76
2023-02-14T04:04:46.837Z,5.74
2023-02-14T04:07:20.865Z,5.73
2023-02-14T04:09:48.141Z,5.68
2023-02-14T04:12:18.221Z,5.66
2023-02-14T04:14:47.066Z,5.66
2023-02-14T04:17:34.833Z,5.66
2023-02-14T04:20:01.750Z,5.64
2023-02-14T04:22:28.715Z,5.66
2023-02-14T04:24:55.516Z,5.65
2023-02-14T04:27:22.338Z,5.65
2023-02-14T04:29:52.543Z,5.65
2023-02-14T04:32:22.118Z,5.65
2023-02-14T04:34:53.907Z,5.64
2023-02-14T04:37:20.814Z,5.64
2023-02-14T04:39:47.685Z,5.63
2023-02-14T04:42:16.861Z,5.61
2023-02-14T04:44:43.815Z,5.60
2023-02-14T04:47:10.774Z,5.60
2023-02-14T04:49:37.682Z,5.58
2023-02-14T04:52:05.663Z,5.58
2023-02-14T04:54:33.084Z,5.58
2023-02-14T04:57:00.267Z,5.56
2023-02-14T04:59:27.084Z,5.54
2023-02-14T05:01:54.374Z,5.55
2023-02-14T05:04:21.268Z,5.54
2023-02-14T05:06:48.125Z,5.52
2023-02-14T05:09:14.908Z,5.51
2023-02-14T05:11:41.688Z,5.51
2023-02-14T05:14:08.713Z,5.50
2023-02-14T05:16:35.556Z,5.48
2023-02-14T05:19:02.374Z,5.47
2023-02-14T05:21:32.913Z,5.46
2023-02-14T05:24:00.747Z,5.44
2023-02-14T05:26:28.263Z,5.45
2023-02-14T05:28:55.018Z,5.43
2023-02-14T05:31:21.911Z,5.41
2023-02-14T05:33:49.083Z,5.39
2023-02-14T05:36:15.870Z,5.39
2023-02-14T05:38:42.641Z,5.37
2023-02-14T05:41:09.431Z,5.34
2023-02-14T05:43:36.227Z,5.33
2023-02-14T05:46:03.082Z,5.31
2023-02-14T05:48:29.971Z,5.30
2023-02-14T05:50:56.741Z,5.30
2023-02-14T05:53:23.549Z,5.29
2023-02-14T05:55:50.335Z,5.29
2023-02-14T05:58:17.085Z,5.27
2023-02-14T06:00:43.835Z,5.28
2023-02-14T06:03:10.604Z,5.30
2023-02-14T06:05:37.343Z,5.31
2023-02-14T06:08:04.178Z,5.34
2023-02-14T06:10:31.023Z,5.37
2023-02-14T06:12:58.028Z,5.42
2023-02-14T06:15:24.896Z,5.46
2023-02-14T06:17:56.531Z,5.51
2023-02-14T06:20:24.624Z,5.55
2023-02-14T06:22:58.847Z,5.60
2023-02-14T06:25:26.010Z,5.64
2023-02-14T06:27:57.235Z,5.68
2023-02-14T06:30:24.865Z,5.71
2023-02-14T06:32:51.737Z,5.74
2023-02-14T06:35:18.673Z,5.75
2023-02-14T06:37:45.625Z,5.78
2023-02-14T06:40:13.459Z,5.80
2023-02-14T06:42:40.266Z,5.83
2023-02-14T06:45:08.175Z,5.85
2023-02-14T06:47:35.338Z,5.86
2023-02-14T06:50:04.997Z,5.89
2023-02-14T06:52:33.269Z,5.91
2023-02-14T06:55:00.110Z,5.93
2023-02-14T06:57:26.953Z,5.95
2023-02-14T06:59:53.721Z,5.98
2023-02-14T07:02:22.312Z,6.00
2023-02-14T07:04:51.847Z,6.02
2023-02-14T07:07:18.651Z,6.04
2023-02-14T07:09:45.445Z,6.06
2023-02-14T07:12:12.257Z,6.08
2023-02-14T07:14:39.077Z,6.09
2023-02-14T07:17:05.881Z,6.11
2023-02-14T07:19:35.858Z,6.11
2023-02-14T07:22:02.821Z,6.11
2023-02-14T07:24:29.622Z,6.12
2023-02-14T07:26:56.448Z,6.13
2023-02-14T07:29:23.242Z,6.14
2023-02-14T07:31:50.162Z,6.14
2023-02-14T07:34:17.040Z,6.18
2023-02-14T07:36:44.124Z,6.18
2023-02-14T07:39:11.473Z,6.19
2023-02-14T07:41:38.575Z,6.24
2023-02-14T07:44:05.366Z,6.28
2023-02-14T07:46:32.204Z,6.32
2023-02-14T07:48:59.044Z,6.35
2023-02-14T07:51:25.860Z,6.39
2023-02-14T07:53:52.707Z,6.43
2023-02-14T07:56:19.615Z,6.48
2023-02-14T07:58:46.709Z,6.51
2023-02-14T08:01:13.556Z,6.53
2023-02-14T08:03:40.341Z,6.58
2023-02-14T08:06:07.168Z,6.60
2023-02-14T08:08:34.044Z,6.66
2023-02-14T08:11:01.696Z,6.70
2023-02-14T08:13:28.969Z,6.75
2023-02-14T08:16:04.433Z,6.80
2023-02-14T08:18:45.914Z,6.86
2023-02-14T08:21:15.761Z,6.93
2023-02-14T08:23:42.816Z,6.99
2023-02-14T08:26:09.780Z,7.07
2023-02-14T08:28:36.682Z,7.15
2023-02-14T08:31:04.870Z,7.27
2023-02-14T08:33:31.828Z,7.35
2023-02-14T08:35:58.638Z,7.44
2023-02-14T08:38:25.494Z,7.49
2023-02-14T08:40:52.622Z,7.54
2023-02-14T08:43:19.617Z,7.59
2023-02-14T08:45:48.414Z,7.65
2023-02-14T08:48:15.365Z,7.71
2023-02-14T08:50:42.685Z,7.76
2023-02-14T08:53:12.625Z,7.82
2023-02-14T08:55:40.310Z,7.86
2023-02-14T08:58:08.170Z,7.92
2023-02-14T09:00:35.147Z,7.96
2023-02-14T09:03:02.057Z,8.02
2023-02-14T09:05:28.976Z,8.03
2023-02-14T09:07:56.394Z,8.07
2023-02-14T09:10:24.639Z,8.12
2023-02-14T09:12:51.513Z,8.17
2023-02-14T09:15:18.600Z,8.22
2023-02-14T09:17:45.519Z,8.27
2023-02-14T09:20:14.763Z,8.33
2023-02-14T09:22:41.697Z,8.39
2023-02-14T09:25:08.515Z,8.46
2023-02-14T09:27:35.763Z,8.52
2023-02-14T09:30:02.721Z,8.58
2023-02-14T09:32:30.011Z,8.65
2023-02-14T09:34:56.948Z,8.72
2023-02-14T09:37:42.142Z,8.77
2023-02-14T09:40:13.268Z,8.84
2023-02-14T09:42:50.977Z,8.90
2023-02-14T09:45:23.235Z,8.98
2023-02-14T09:48:21.595Z,9.08
2023-02-14T09:50:57.154Z,9.16
2023-02-14T09:53:33.154Z,9.24
2023-02-14T09:56:28.503Z,9.33
2023-02-14T09:59:45.925Z,9.41
2023-02-14T10:02:53.851Z,9.48
2023-02-14T10:05:37.568Z,9.55
2023-02-14T10:08:48.280Z,9.63
2023-02-14T10:11:22.834Z,9.70
2023-02-14T10:13:54.966Z,9.80
2023-02-14T10:16:33.996Z,9.87
2023-02-14T10:19:04.361Z,9.93
2023-02-14T10:21:41.247Z,10.03
2023-02-14T10:24:25.972Z,10.11
2023-02-14T10:27:02.007Z,10.19
2023-02-14T10:29:28.818Z,10.29
2023-02-14T10:32:00.547Z,10.36
2023-02-14T10:34:51.422Z,10.45
2023-02-14T10:37:46.316Z,10.56
2023-02-14T10:40:40.046Z,10.60
2023-02-14T10:43:23.125Z,10.67
2023-02-14T10:46:27.622Z,10.76
2023-02-14T10:49:21.890Z,10.86
2023-02-14T10:52:24.796Z,10.94
2023-02-14T10:54:57.143Z,11.01
2023-02-14T10:57:33.927Z,11.08
2023-02-14T11:00:26.985Z,11.15
2023-02-14T11:03:05.796Z,11.21
2023-02-14T11:05:46.892Z,11.28
2023-02-14T11:08:35.482Z,11.35
2023-02-14T11:11:28.305Z,11.42
2023-02-14T11:13:55.228Z,11.49
2023-02-14T11:16:35.495Z,11.57
2023-02-14T11:19:37.225Z,11.64
2023-02-14T11:22:04.679Z,11.68
2023-02-14T11:24:47.189Z,11.75
2023-02-14T11:27:13.844Z,11.79
2023-02-14T11:29:48.154Z,11.87
2023-02-14T11:32:30.504Z,11.92
2023-02-14T11:35:07.201Z,11.99
2023-02-14T11:37:50.182Z,12.05
2023-02-14T11:40:38.244Z,12.09
2023-02-14T11:43:14.394Z,12.12
2023-02-14T11:45:44.278Z,12.18
2023-02-14T11:48:39.507Z,12.25
2023-02-14T11:51:16.033Z,12.30
2023-02-14T11:53:53.794Z,12.35
2023-02-14T11:56:23.187Z,12.40
2023-02-14T11:58:59.994Z,12.46
2023-02-14T12:01:33.197Z,12.49
2023-02-14T12:04:26.622Z,12.55
2023-02-14T12:06:55.064Z,12.60
2023-02-14T12:09:26.216Z,12.67
2023-02-14T12:12:00.005Z,12.72
2023-02-14T12:14:34.080Z,12.77
2023-02-14T12:17:29.009Z,12.84
2023-02-14T12:20:12.340Z,12.87
2023-02-14T12:22:50.327Z,12.93
2023-02-14T12:25:21.365Z,12.97
2023-02-14T12:27:56.657Z,13.05
2023-02-14T12:30:25.837Z,13.11
2023-02-14T12:32:56.193Z,13.18
2023-02-14T12:35:44.153Z,13.26
2023-02-14T12:38:31.993Z,13.31
2023-02-14T12:41:20.097Z,13.36
2023-02-14T12:43:57.427Z,13.41
2023-02-14T12:47:13.058Z,13.43
2023-02-14T12:49:52.353Z,13.43
2023-02-14T12:52:49.241Z,13.46
2023-02-14T12:55:34.633Z,13.54
2023-02-14T12:58:43.625Z,13.61
2023-02-14T13:02:09.905Z,13.64
2023-02-14T13:04:49.952Z,13.69
2023-02-14T13:07:47.810Z,13.73
2023-02-14T13:10:44.566Z,13.77
2023-02-14T13:13:33.546Z,13.83
2023-02-14T13:19:38.814Z,13.92
2023-02-14T13:22:12.857Z,13.96
2023-02-14T13:25:00.041Z,14.01
2023-02-14T13:27:33.183Z,14.02
2023-02-14T13:30:05.593Z,14.07
2023-02-14T13:32:40.036Z,14.12
2023-02-14T13:35:08.200Z,14.15
2023-02-14T13:37:36.708Z,14.19
2023-02-14T13:40:16.398Z,14.24
2023-02-14T13:42:49.872Z,14.29
2023-02-14T13:45:40.598Z,14.34
2023-02-14T13:48:12.028Z,14.37
2023-02-14T13:51:01.316Z,14.41
2023-02-14T13:53:35.526Z,14.45
2023-02-14T13:56:33.434Z,14.49
2023-02-14T13:59:05.263Z,14.52
2023-02-14T14:01:51.441Z,14.55
2023-02-14T14:04:31.767Z,14.58
2023-02-14T14:07:04.986Z,14.62
2023-02-14T14:09:47.512Z,14.63
2023-02-14T14:12:26.115Z,14.66
2023-02-14T14:15:05.531Z,14.68
2023-02-14T14:17:50.262Z,14.70
2023-02-14T14:20:18.549Z,14.70
2023-02-14T14:23:01.134Z,14.73
2023-02-14T14:25:36.230Z,14.74
2023-02-14T14:28:18.754Z,14.75
2023-02-14T14:30:45.832Z,14.74
2023-02-14T14:33:33.446Z,14.74
2023-02-14T14:36:11.067Z,14.73
2023-02-14T14:39:02.102Z,14.74
2023-02-14T14:41:32.960Z,14.70
2023-02-14T14:44:00.247Z,14.69
2023-02-14T14:46:27.252Z,14.67
2023-02-14T14:48:55.993Z,14.65
2023-02-14T14:51:35.488Z,14.63
2023-02-14T14:54:08.015Z,14.57
2023-02-14T14:56:39.679Z,14.53
2023-02-14T14:59:22.456Z,14.49
2023-02-14T15:01:54.145Z,14.44
2023-02-14T15:04:35.285Z,14.40
2023-02-14T15:07:33.072Z,14.34
2023-02-14T15:10:01.160Z,14.27
2023-02-14T15:12:47.989Z,14.23
2023-02-14T15:15:17.953Z,14.20
2023-02-14T15:17:46.079Z,14.15
2023-02-14T15:20:23.724Z,14.12
2023-02-14T15:22:52.848Z,14.08
2023-02-14T15:25:44.481Z,14.03
2023-02-14T15:28:32.253Z,13.98
2023-02-14T15:31:05.931Z,13.93
2023-02-14T15:33:33.812Z,13.90
2023-02-14T15:36:08.759Z,13.87
2023-02-14T15:38:40.355Z,13.84
2023-02-14T15:41:08.191Z,13.78
2023-02-14T15:43:37.558Z,13.73
2023-02-14T15:46:37.105Z,13.68
2023-02-14T15:49:16.683Z,13.62
2023-02-14T15:51:43.952Z,13.57
2023-02-14T15:54:47.294Z,13.51
2023-02-14T15:57:30.077Z,13.44
2023-02-14T15:59:57.008Z,13.38
2023-02-14T16:02:40.606Z,13.35
2023-02-14T16:05:19.663Z,13.28
2023-02-14T16:08:27.341Z,13.18
2023-02-14T16:11:26.058Z,13.10
2023-02-14T16:13:53.259Z,13.02
2023-02-14T16:16:20.005Z,12.96
2023-02-14T16:18:50.479Z,12.92
2023-02-14T16:21:27.679Z,12.85
2023-02-14T16:24:06.749Z,12.78
2023-02-14T16:26:38.047Z,12.71
2023-02-14T16:29:11.671Z,12.66
2023-02-14T16:32:01.184Z,12.57
2023-02-14T16:34:30.649Z,12.50
2023-02-14T16:36:57.441Z,12.45
2023-02-14T16:39:26.185Z,12.41
2023-02-14T16:41:56.315Z,12.36
2023-02-14T16:44:23.109Z,12.30
2023-02-14T16:46:49.872Z,12.24
2023-02-14T16:49:16.752Z,12.19
2023-02-14T16:51:46.878Z,12.14
2023-02-14T16:54:19.883Z,12.09
2023-02-14T16:56:58.382Z,12.04
2023-02-14T16:59:25.208Z,11.98
2023-02-14T17:01:52.061Z,11.93
2023-02-14T17:04:18.878Z,11.87
2023-02-14T17:06:53.956Z,11.83
2023-02-14T17:09:27.459Z,11.78
2023-02-14T17:11:58.525Z,11.72
2023-02-14T17:14:30.367Z,11.66
2023-02-14T17:16:58.076Z,11.60
2023-02-14T17:19:25.229Z,11.56
2023-02-14T17:21:52.659Z,11.50
2023-02-14T17:24:19.426Z,11.45
2023-02-14T17:26:46.197Z,11.40
2023-02-14T17:29:13.369Z,11.36
2023-02-14T17:31:40.331Z,11.31
2023-02-14T17:34:07.281Z,11.27
2023-02-14T17:36:34.142Z,11.22
2023-02-14T17:39:03.323Z,11.17
2023-02-14T17:41:30.305Z,11.12
2023-02-14T17:44:00.300Z,11.07
2023-02-14T17:46:29.434Z,11.02
2023-02-14T17:48:57.600Z,10.97
2023-02-14T17:51:24.990Z,10.92
2023-02-14T17:53:51.799Z,10.88
2023-02-14T17:56:22.532Z,10.85
2023-02-14T17:58:51.406Z,10.80
2023-02-14T18:01:21.570Z,10.75
2023-02-14T18:03:48.739Z,10.71
2023-02-14T18:06:15.789Z,10.67
2023-02-14T18:08:46.194Z,10.63
2023-02-14T18:11:14.061Z,10.58
2023-02-14T18:13:41.328Z,10.53
2023-02-14T18:16:15.872Z,10.51
2023-02-14T18:18:42.951Z,10.44
2023-02-14T18:21:12.938Z,10.43
2023-02-14T18:23:39.972Z,10.38
2023-02-14T18:26:11.810Z,10.33
2023-02-14T18:28:38.942Z,10.28
2023-02-14T18:31:10.701Z,10.24
2023-02-14T18:33:38.511Z,10.22
2023-02-14T18:36:15.511Z,10.17
2023-02-14T18:38:45.495Z,10.13
2023-02-14T18:41:16.853Z,10.09
2023-02-14T18:43:44.966Z,10.05
2023-02-14T18:46:15.836Z,10.00
2023-02-14T18:48:42.883Z,9.97
2023-02-14T19:13:33.996Z,9.64
2023-02-14T19:16:00.830Z,9.67
2023-02-14T19:18:27.644Z,9.69
2023-02-14T19:20:54.449Z,9.73
2023-02-14T19:23:21.612Z,9.76
2023-02-14T19:25:48.530Z,9.80
2023-02-14T19:28:15.601Z,9.83
2023-02-14T19:30:42.432Z,9.86
2023-02-14T19:33:09.220Z,9.89
2023-02-14T19:35:35.996Z,9.91
2023-02-14T19:38:03.452Z,9.94
2023-02-14T19:40:30.907Z,9.95
2023-02-14T19:42:58.060Z,9.97
2023-02-14T19:45:24.974Z,9.99
2023-02-14T19:47:51.982Z,10.00
2023-02-14T19:50:20.423Z,10.01
2023-02-14T19:52:48.775Z,10.02
2023-02-14T19:55:22.146Z,10.04
2023-02-14T19:57:49.021Z,10.03
2023-02-14T20:00:16.935Z,10.05
2023-02-14T20:02:47.966Z,10.06
2023-02-14T20:05:16.569Z,10.05
2023-02-14T20:07:43.891Z,10.07
2023-02-14T20:10:12.254Z,10.06
2023-02-14T20:12:39.259Z,10.05
2023-02-14T20:15:09.209Z,10.04
2023-02-14T20:17:37.475Z,10.03
2023-02-14T20:20:08.372Z,10.01
2023-02-14T20:22:36.249Z,9.99
2023-02-14T20:25:03.077Z,9.94
2023-02-14T20:27:29.868Z,9.89
2023-02-14T20:29:56.772Z,9.85
2023-02-14T20:32:23.589Z,9.78
2023-02-14T20:34:51.748Z,9.74
2023-02-14T20:37:18.585Z,9.69
2023-02-14T20:39:45.465Z,9.62
2023-02-14T20:42:12.236Z,9.59
2023-02-14T20:44:39.070Z,9.55
2023-02-14T20:47:06.791Z,9.52
2023-02-14T20:49:35.589Z,9.50
2023-02-14T20:52:02.703Z,9.44
2023-02-14T20:54:30.367Z,9.41
2023-02-14T20:56:57.858Z,9.36
2023-02-14T20:59:28.508Z,9.32
2023-02-14T21:01:57.495Z,9.27
2023-02-14T21:04:25.221Z,9.23
2023-02-14T21:06:52.053Z,9.21
2023-02-14T21:09:20.632Z,9.17
2023-02-14T21:11:47.488Z,9.15
2023-02-14T21:14:14.506Z,9.11
2023-02-14T21:16:41.323Z,9.08
2023-02-14T21:19:08.173Z,9.05
2023-02-14T21:21:39.340Z,8.98
2023-02-14T21:24:15.536Z,8.95
2023-02-14T21:26:43.329Z,8.89
2023-02-14T21:29:10.432Z,8.84
2023-02-14T21:31:37.724Z,8.78
2023-02-14T21:34:04.784Z,8.74
2023-02-14T21:36:35.472Z,8.72
2023-02-14T21:39:04.547Z,8.69
2023-02-14T21:41:32.049Z,8.65
2023-02-14T21:44:00.809Z,8.63
2023-02-14T21:46:35.770Z,8.62
2023-02-14T21:49:24.454Z,8.59
2023-02-14T21:51:51.418Z,8.52
2023-02-14T21:54:18.247Z,8.50
2023-02-14T21:56:45.305Z,8.47
2023-02-14T21:59:12.561Z,8.43
2023-02-14T22:01:41.364Z,8.38
2023-02-14T22:04:12.130Z,8.34
2023-02-14T22:06:41.517Z,8.30
2023-02-14T22:09:13.974Z,8.26
2023-02-14T22:11:40.918Z,8.24
2023-02-14T22:14:07.851Z,8.19
2023-02-14T22:16:36.701Z,8.14
2023-02-14T22:19:05.408Z,8.07
2023-02-14T22:21:33.405Z,8.02
2023-02-14T22:24:01.329Z,7.97
2023-02-14T22:26:35.408Z,7.91
2023-02-14T22:29:02.420Z,7.81
2023-02-14T22:31:35.257Z,7.74
2023-02-14T22:34:03.916Z,7.70
2023-02-14T22:36:30.937Z,7.64
2023-02-14T22:38:57.772Z,7.61
2023-02-14T22:41:25.648Z,7.56
2023-02-14T22:43:53.839Z,7.52
2023-02-14T22:46:24.900Z,7.47
2023-02-14T22:48:53.061Z,7.42
2023-02-14T22:51:21.361Z,7.40
2023-02-14T22:53:49.450Z,7.35
2023-02-14T22:56:24.396Z,7.32
2023-02-14T22:59:00.919Z,7.28
2023-02-14T23:01:28.530Z,7.23
2023-02-14T23:03:57.950Z,7.18
2023-02-14T23:06:28.332Z,7.14
2023-02-14T23:08:56.172Z,7.11
2023-02-14T23:11:30.534Z,7.08
2023-02-14T23:14:16.393Z,7.05
2023-02-14T23:17:02.485Z,7.00
2023-02-14T23:19:51.269Z,6.96
2023-02-14T23:22:26.486Z,6.92
2023-02-14T23:24:59.561Z,6.89
2023-02-14T23:27:37.182Z,6.87
2023-02-14T23:30:11.411Z,6.86
2023-02-14T23:32:38.308Z,6.83
2023-02-14T23:35:05.992Z,6.81
2023-02-14T23:37:33.478Z,6.79
2023-02-14T23:40:00.266Z,6.78
2023-02-14T23:42:28.105Z,6.75
2023-02-14T23:45:14.896Z,6.73
2023-02-14T23:47:41.663Z,6.71
2023-02-14T23:50:09.001Z,6.69
2023-02-14T23:52:38.284Z,6.67
2023-02-14T23:55:06.239Z,6.65
2023-02-14T23:57:32.995Z,6.63
